Time;durP1;ratioP1;P1;durP2;ratioP2;P2;SDS_P1;SDS_P2;PMS_P1;PMS_P2;Temp;Humidity;BMP_temperature;BMP_pressure;BME280_temperature;BME280_humidity;BME280_pressure;Samples;Min_cycle;Max_cycle;Signal;HPM_P1;HPM_P2
2024/03/12 00:10:41;;;;;;;;;;;;;;;;;;;;;
2024/03/12 00:16:57;;;;;;;68.80;40.50;;;;;;;6.55;100.00;98185.95;271417;1276;22187;-91
2024/03/12 00:23:07;;;;;;;72.00;38.40;;;;;;;6.55;100.00;98184.79;271701;1275;22279;-91
2024/03/12 00:29:22;;;;;;;76.10;40.90;;;;;;;6.52;100.00;98183.52;271517;1276;22192;-89
2024/03/12 00:35:42;;;;;;;;;;;;;;;;;;;;;
2024/03/12 00:41:47;;;;;;;86.00;44.40;;;;;;;6.52;100.00;98184.83;271616;1276;23551;-90
2024/03/12 00:47:49;;;;;;;75.20;41.70;;;;;;;6.50;100.00;98180.15;271510;1275;22364;-91
2024/03/12 00:53:50;;;;;;;78.70;41.20;;;;;;;6.49;100.00;98172.98;271668;1275;22304;-90
2024/03/12 00:59:58;;;;;;;82.40;41.50;;;;;;;6.48;100.00;98171.11;271423;1275;22382;-91
2024/03/12 01:06:03;;;;;;;90.50;44.40;;;;;;;6.49;100.00;98169.11;271534;1277;22223;-91
2024/03/12 01:12:11;;;;;;;80.80;41.40;;;;;;;6.48;100.00;98166.38;272194;1276;22200;-90
2024/03/12 01:18:15;;;;;;;77.30;41.90;;;;;;;6.46;100.00;98162.62;271567;1276;22214;-90
2024/03/12 01:24:28;;;;;;;78.70;40.80;;;;;;;6.46;100.00;98155.77;271474;1261;22427;-90
2024/03/12 01:30:43;;;;;;;;;;;;;;;;;;;;;
2024/03/12 01:37:04;;;;;;;78.90;41.20;;;;;;;6.45;100.00;98153.59;271702;1275;23505;-90
2024/03/12 01:43:08;;;;;;;84.20;41.80;;;;;;;6.42;100.00;98149.35;271614;1262;22205;-91
2024/03/12 01:49:12;;;;;;;90.10;44.00;;;;;;;6.39;100.00;98145.52;271629;1276;23195;-90
2024/03/12 01:55:20;;;;;;;85.60;43.00;;;;;;;6.36;100.00;98143.38;271613;1275;23708;-91
2024/03/12 02:01:32;;;;;;;82.20;43.20;;;;;;;6.35;100.00;98142.59;271473;1267;213763;-90
2024/03/12 02:07:38;;;;;;;87.80;42.40;;;;;;;6.34;100.00;98143.65;271514;1275;23140;-91
2024/03/12 02:13:41;;;;;;;97.90;44.90;;;;;;;6.34;100.00;98143.27;271654;1275;22181;-91
2024/03/12 02:19:43;;;;;;;90.60;43.00;;;;;;;6.35;100.00;98144.98;271411;1276;23598;-91
2024/03/12 02:25:45;;;;;;;98.90;47.80;;;;;;;6.35;100.00;98146.16;271519;1276;22219;-91
2024/03/12 02:31:49;;;;;;;98.70;43.20;;;;;;;6.35;100.00;98143.83;271758;1267;101510;-84
2024/03/12 02:37:53;;;;;;;80.50;40.90;;;;;;;6.35;100.00;98147.48;270971;1277;22194;-84
2024/03/12 02:44:14;;;;;;;85.90;40.60;;;;;;;6.36;100.00;98146.79;272050;1285;22323;-84
2024/03/12 02:50:29;;;;;;;88.10;40.10;;;;;;;6.36;100.00;98144.30;272364;1284;22190;-84
2024/03/12 02:57:36;;;;;;;84.60;40.30;;;;;;;6.35;100.00;98136.77;272119;1278;22204;-85
2024/03/12 03:03:39;;;;;;;80.40;40.20;;;;;;;6.35;100.00;98138.84;272370;1277;22178;-85
2024/03/12 03:10:03;;;;;;;88.90;40.90;;;;;;;6.35;100.00;98139.55;272167;1277;22219;-85
2024/03/12 03:16:48;;;;;;;77.40;38.30;;;;;;;6.34;100.00;98137.61;272067;1280;22322;-85
2024/03/12 03:22:54;;;;;;;86.00;40.60;;;;;;;6.36;100.00;98138.55;272412;1284;22262;-85
2024/03/12 03:28:57;;;;;;;84.50;38.30;;;;;;;6.37;100.00;98136.39;272468;1280;22284;-85
2024/03/12 03:35:40;;;;;;;76.60;36.20;;;;;;;6.34;100.00;98136.75;272142;1277;22190;-85
2024/03/12 03:42:18;;;;;;;89.50;39.20;;;;;;;6.33;100.00;98140.92;271847;1277;23018;-85
2024/03/12 03:48:45;;;;;;;73.60;35.50;;;;;;;6.32;100.00;98142.69;272276;1278;23008;-84
2024/03/12 03:54:51;;;;;;;76.10;35.00;;;;;;;6.33;100.00;98149.85;272343;1277;22149;-85
2024/03/12 04:01:18;;;;;;;75.80;37.00;;;;;;;6.34;100.00;98150.18;272312;1276;23570;-85
2024/03/12 04:07:41;;;;;;;77.30;35.10;;;;;;;6.35;100.00;98151.20;272393;1277;22204;-86
2024/03/12 04:14:10;;;;;;;74.70;34.90;;;;;;;6.36;100.00;98149.12;272146;1280;22236;-86
2024/03/12 04:20:12;;;;;;;78.00;35.30;;;;;;;6.38;100.00;98151.71;272271;1277;22192;-85
2024/03/12 04:26:28;;;;;;;71.60;35.60;;;;;;;6.40;100.00;98151.80;271731;1277;23690;-85
2024/03/12 04:32:53;;;;;;;78.40;37.10;;;;;;;6.39;100.00;98151.17;272035;1277;22222;-85
2024/03/12 04:39:30;;;;;;;85.60;37.80;;;;;;;6.38;100.00;98153.42;271871;1277;22194;-86
2024/03/12 04:45:35;;;;;;;85.40;36.40;;;;;;;6.37;100.00;98158.14;272456;1282;22192;-86
2024/03/12 04:52:02;;;;;;;87.40;36.00;;;;;;;6.37;100.00;98161.56;272359;1277;22204;-85
2024/03/12 04:58:16;;;;;;;79.00;34.70;;;;;;;6.38;100.00;98170.19;272135;1280;22275;-85
2024/03/12 05:04:32;;;;;;;72.70;34.80;;;;;;;6.38;100.00;98176.48;272446;1273;23003;-84
2024/03/12 05:10:39;;;;;;;66.20;32.30;;;;;;;6.40;100.00;98183.65;272302;1280;22185;-85
2024/03/12 05:16:41;;;;;;;66.70;32.60;;;;;;;6.42;100.00;98180.97;271068;1277;22939;-85
2024/03/12 05:22:45;;;;;;;67.40;32.20;;;;;;;6.43;100.00;98192.25;271873;1277;23435;-85
2024/03/12 05:29:10;;;;;;;63.00;31.20;;;;;;;6.46;100.00;98200.27;271894;1277;22234;-85
2024/03/12 05:35:22;;;;;;;76.70;34.80;;;;;;;6.47;100.00;98188.10;271802;1276;22403;-85
2024/03/12 05:48:06;;;;;;;86.80;38.40;;;;;;;6.46;100.00;98194.61;272025;1280;22214;-85
2024/03/12 05:48:13;;;;;;;90.20;38.80;;;;;;;6.47;100.00;98205.11;272438;1277;22794;-85
2024/03/12 05:54:18;;;;;;;98.30;42.20;;;;;;;6.50;100.00;98209.27;272421;1284;22275;-85
2024/03/12 06:00:20;;;;;;;87.80;39.70;;;;;;;6.52;100.00;98213.52;271492;1277;23339;-85
2024/03/12 06:06:40;;;;;;;85.10;37.90;;;;;;;6.52;100.00;98219.70;271970;1273;22822;-85
2024/03/12 06:13:03;;;;;;;80.80;35.90;;;;;;;6.51;100.00;98222.10;272225;1278;23431;-85
2024/03/12 06:19:34;;;;;;;71.90;32.80;;;;;;;6.52;100.00;98227.65;271908;1277;22289;-85
2024/03/12 06:25:36;;;;;;;64.00;31.70;;;;;;;6.53;100.00;98229.60;271440;1276;22627;-85
2024/03/12 06:32:06;;;;;;;69.20;32.70;;;;;;;6.55;100.00;98230.25;271293;1276;22236;-85
2024/03/12 06:38:33;;;;;;;71.60;34.00;;;;;;;6.57;100.00;98234.25;272496;1278;23164;-86
2024/03/12 06:45:05;;;;;;;76.40;34.30;;;;;;;6.58;100.00;98242.11;272378;1277;22945;-86
2024/03/12 06:51:26;;;;;;;74.80;33.70;;;;;;;6.63;100.00;98245.43;272296;1277;22201;-86
2024/03/12 06:58:11;;;;;;;81.40;35.90;;;;;;;6.66;100.00;98249.60;271594;1277;22181;-85
2024/03/12 07:04:48;;;;;;;73.80;33.60;;;;;;;6.72;100.00;98255.91;272465;1280;22179;-85
2024/03/12 07:11:17;;;;;;;70.60;33.00;;;;;;;6.75;100.00;98257.89;272243;1277;23080;-85
2024/03/12 07:17:42;;;;;;;72.90;32.00;;;;;;;6.76;100.00;98262.19;272205;1280;22302;-85
2024/03/12 07:24:07;;;;;;;66.10;31.40;;;;;;;6.81;100.00;98273.61;272260;1277;22733;-85
2024/03/12 07:30:10;;;;;;;71.50;33.60;;;;;;;6.83;100.00;98278.77;271587;1277;22170;-86
2024/03/12 07:36:59;;;;;;;72.20;34.10;;;;;;;6.84;100.00;98274.58;272106;1277;22405;-86
2024/03/12 07:43:11;;;;;;;72.50;33.00;;;;;;;6.87;100.00;98280.30;272453;1280;22657;-86
2024/03/12 07:49:13;;;;;;;64.20;29.60;;;;;;;6.90;100.00;98286.79;271419;1276;23848;-86
2024/03/12 07:55:43;;;;;;;70.10;31.50;;;;;;;6.92;100.00;98286.27;272175;1278;22229;-86
2024/03/12 08:01:59;;;;;;;68.20;31.00;;;;;;;6.96;100.00;98292.32;272350;1277;23049;-85
2024/03/12 08:08:26;;;;;;;69.90;32.10;;;;;;;7.01;100.00;98290.21;272153;1277;23066;-85
2024/03/12 08:14:53;;;;;;;;;;;;;;;7.09;100.00;98293.75;272364;1284;22398;-85
2024/03/12 08:21:16;;;;;;;72.00;32.30;;;;;;;7.10;100.00;98299.04;271966;1277;22242;-85
2024/03/12 08:27:18;;;;;;;69.10;33.00;;;;;;;7.12;100.00;98302.26;271336;1276;22378;-85
2024/03/12 08:33:20;;;;;;;74.10;31.80;;;;;;;7.17;100.00;98303.40;271281;1277;22264;-85
2024/03/12 08:39:22;;;;;;;70.90;33.00;;;;;;;7.21;100.00;98302.93;271376;1276;22426;-85
2024/03/12 08:45:39;;;;;;;72.40;33.20;;;;;;;7.28;100.00;98308.30;272176;1278;22253;-86
2024/03/12 08:52:06;;;;;;;67.00;31.70;;;;;;;7.35;100.00;98311.05;271481;1276;23506;-85
2024/03/12 08:58:08;;;;;;;64.20;30.50;;;;;;;7.40;100.00;98311.80;271487;1266;22636;-86
2024/03/12 09:04:10;;;;;;;64.30;30.50;;;;;;;7.46;100.00;98318.18;271346;1276;22273;-86
2024/03/12 09:11:04;;;;;;;60.90;30.00;;;;;;;7.54;100.00;98324.35;271718;1276;22172;-86
2024/03/12 09:17:10;;;;;;;65.00;30.70;;;;;;;7.58;100.00;98324.88;271860;1277;22186;-86
2024/03/12 09:23:13;;;;;;;73.30;37.00;;;;;;;7.58;100.00;98330.09;271336;1277;23233;-86
2024/03/12 09:29:15;;;;;;;75.20;31.20;;;;;;;7.64;100.00;98338.87;271137;1269;23665;-86
2024/03/12 09:35:18;;;;;;;66.10;30.30;;;;;;;7.66;100.00;98336.02;271359;1277;23815;-86
2024/03/12 09:41:21;;;;;;;65.40;32.40;;;;;;;7.68;100.00;98340.87;271577;1277;23245;-86
2024/03/12 09:47:23;;;;;;;69.40;32.20;;;;;;;7.74;100.00;98337.67;271403;1277;22427;-87
2024/03/12 09:54:15;;;;;;;67.20;31.60;;;;;;;7.77;100.00;98332.34;271789;1280;22329;-86
2024/03/12 10:00:46;;;;;;;73.30;34.70;;;;;;;7.83;100.00;98338.25;272347;1284;22369;-86
2024/03/12 10:06:49;;;;;;;73.30;36.20;;;;;;;7.84;100.00;98347.52;271823;1277;22307;-86
2024/03/12 10:20:55;;;;;;;77.80;34.00;;;;;;;7.87;100.00;98355.11;272164;1280;22169;-86
2024/03/12 10:27:23;;;;;;;65.20;31.70;;;;;;;7.95;100.00;98352.16;272253;1280;22234;-86
2024/03/12 10:35:21;;;;;;;70.10;34.10;;;;;;;8.02;100.00;98357.60;272284;1277;22194;-86
2024/03/12 10:41:49;;;;;;;76.80;33.60;;;;;;;7.96;100.00;98359.02;271869;1280;22178;-86
2024/03/12 10:48:20;;;;;;;73.30;35.80;;;;;;;7.92;100.00;98360.14;272110;1280;22402;-86
2024/03/12 10:54:22;;;;;;;75.10;36.00;;;;;;;7.85;100.00;98367.23;272166;1280;23252;-86
2024/03/12 11:00:28;;;;;;;69.00;34.10;;;;;;;7.83;100.00;98367.52;271059;1277;22280;-87
2024/03/12 11:07:13;;;;;;;69.20;34.40;;;;;;;7.83;100.00;98366.34;271577;1277;22212;-86
2024/03/12 11:14:09;;;;;;;71.20;32.90;;;;;;;7.85;100.00;98366.61;272322;1280;22191;-86
2024/03/12 11:21:05;;;;;;;;;;;;;;;;;;;;;
2024/03/12 11:27:31;;;;;;;63.70;32.10;;;;;;;7.82;100.00;98366.19;271935;1282;22243;-86
2024/03/12 11:34:07;;;;;;;66.40;31.50;;;;;;;7.85;100.00;98364.44;271412;1277;23347;-86
2024/03/12 11:41:16;;;;;;;;;;;;;;;;;;;;;
2024/03/12 11:47:54;;;;;;;51.60;26.10;;;;;;;8.01;100.00;98363.67;272419;1280;22842;-87
2024/03/12 11:54:50;;;;;;;58.50;27.10;;;;;;;8.17;100.00;98364.39;272318;1284;22171;-87
2024/03/12 12:01:10;;;;;;;63.50;29.70;;;;;;;8.29;100.00;98365.55;272428;1277;22226;-87
2024/03/12 12:07:37;;;;;;;57.30;28.00;;;;;;;8.36;100.00;98361.90;272222;1279;23410;-87
2024/03/12 12:13:47;;;;;;;61.40;29.80;;;;;;;8.43;100.00;98370.13;272378;1284;23655;-87
2024/03/12 12:20:21;;;;;;;59.00;27.50;;;;;;;8.43;100.00;98368.27;272200;1268;22882;-86
2024/03/12 12:26:43;;;;;;;59.60;29.20;;;;;;;8.42;100.00;98369.27;272110;1285;22940;-87
2024/03/12 12:32:45;;;;;;;;;;;;;;;8.46;100.00;98372.89;272242;1281;22400;-86
2024/03/12 12:38:49;;;;;;;49.20;25.40;;;;;;;8.51;100.00;98380.04;271637;1276;22521;-86
2024/03/12 12:44:56;;;;;;;52.40;27.10;;;;;;;8.58;100.00;98377.83;271904;1277;22952;-86
2024/03/12 12:51:00;;;;;;;53.90;28.20;;;;;;;8.60;100.00;98376.60;271225;1277;22239;-86
2024/03/12 12:57:15;;;;;;;45.20;26.00;;;;;;;8.62;100.00;98369.45;272215;1280;22232;-86
2024/03/12 13:03:18;;;;;;;44.80;25.40;;;;;;;8.66;100.00;98373.46;271944;1277;23542;-86
2024/03/12 13:09:41;;;;;;;51.30;26.60;;;;;;;8.64;100.00;98373.68;272073;1277;22282;-86
2024/03/12 13:16:25;;;;;;;55.10;27.20;;;;;;;8.60;100.00;98375.19;272028;1277;22209;-86
2024/03/12 13:22:27;;;;;;;54.40;26.30;;;;;;;8.55;100.00;98382.86;272408;1277;23650;-86
2024/03/12 13:28:29;;;;;;;58.10;29.70;;;;;;;8.51;100.00;98386.50;271449;1277;22296;-86
2024/03/12 13:34:31;;;;;;;57.40;29.20;;;;;;;8.47;100.00;98394.02;271474;1274;23738;-86
2024/03/12 13:40:33;;;;;;;58.90;29.80;;;;;;;8.45;100.00;98402.02;271546;1277;22235;-86
2024/03/12 13:46:36;;;;;;;59.80;28.70;;;;;;;8.44;100.00;98402.16;271842;1277;22200;-86
2024/03/12 13:52:53;;;;;;;54.50;26.40;;;;;;;8.45;100.00;98404.44;271564;1264;22211;-86
2024/03/12 13:59:40;;;;;;;;;;;;;;;8.43;100.00;98407.78;272485;1284;22370;-86
2024/03/12 14:06:35;;;;;;;59.30;28.60;;;;;;;8.40;100.00;98412.41;266165;1284;5379857;-86
2024/03/12 14:13:19;;;;;;;62.30;29.20;;;;;;;8.37;100.00;98415.04;271021;1286;22239;-86
2024/03/12 14:19:22;;;;;;;66.10;30.50;;;;;;;8.32;100.00;98417.86;271104;1287;23460;-86
2024/03/12 14:25:24;;;;;;;61.50;29.80;;;;;;;8.24;100.00;98423.23;270150;1282;22319;-86
2024/03/12 14:31:26;;;;;;;65.10;30.70;;;;;;;8.22;100.00;98423.65;271275;1277;22434;-86
2024/03/12 14:37:30;;;;;;;67.20;31.50;;;;;;;8.22;100.00;98425.06;271932;1277;22226;-86
2024/03/12 14:43:33;;;;;;;60.90;31.00;;;;;;;8.20;100.00;98427.21;271829;1277;22224;-85
2024/03/12 14:49:35;;;;;;;63.50;31.10;;;;;;;8.20;100.00;98428.14;271193;1277;22492;-87
2024/03/12 14:55:39;;;;;;;71.90;33.70;;;;;;;8.18;100.00;98423.13;271436;1277;22435;-86
2024/03/12 15:01:41;;;;;;;72.70;35.10;;;;;;;8.15;100.00;98422.02;271294;1276;22240;-86
2024/03/12 15:08:06;;;;;;;71.80;35.30;;;;;;;8.13;100.00;98424.79;272090;1277;22830;-86
2024/03/12 15:14:58;;;;;;;78.70;35.90;;;;;;;8.12;100.00;98429.77;271368;1277;22320;-86
2024/03/12 15:21:00;;;;;;;71.60;35.90;;;;;;;8.11;100.00;98434.27;272346;1277;22178;-86
2024/03/12 15:27:03;;;;;;;71.80;36.90;;;;;;;8.11;100.00;98436.61;271332;1276;23238;-85
2024/03/12 15:33:08;;;;;;;71.80;36.90;;;;;;;8.09;100.00;98438.61;271242;1277;22462;-86
2024/03/12 15:39:10;;;;;;;76.80;37.60;;;;;;;8.09;100.00;98438.61;271206;1274;22404;-86
2024/03/12 15:45:14;;;;;;;75.40;37.30;;;;;;;8.06;100.00;98444.16;271444;1277;23432;-86
2024/03/12 15:51:17;;;;;;;76.40;38.40;;;;;;;8.05;100.00;98449.85;271210;1278;23022;-86
2024/03/12 15:57:19;;;;;;;77.90;41.00;;;;;;;8.05;100.00;98453.89;271234;1276;22736;-86
2024/03/12 16:03:23;;;;;;;77.20;40.40;;;;;;;8.05;100.00;98460.98;271222;1277;22416;-86
2024/03/12 16:09:25;;;;;;;82.60;43.80;;;;;;;8.06;100.00;98465.44;271352;1277;22318;-86
2024/03/12 16:15:53;;;;;;;76.30;42.60;;;;;;;8.06;100.00;98472.68;272255;1278;22175;-85
2024/03/12 16:23:07;;;;;;;76.40;40.90;;;;;;;8.06;100.00;98477.98;271876;1277;22195;-86
2024/03/12 16:29:09;;;;;;;78.30;40.80;;;;;;;8.05;100.00;98484.34;271176;1276;22513;-85
2024/03/12 16:35:14;;;;;;;69.60;39.50;;;;;;;8.04;100.00;98490.80;271561;1276;22443;-85
2024/03/12 16:41:36;;;;;;;73.20;37.40;;;;;;;8.04;100.00;98492.43;271721;1277;22412;-85
2024/03/12 16:47:49;;;;;;;81.80;37.50;;;;;;;8.02;100.00;98498.34;271625;1277;22397;-86
2024/03/12 16:53:51;;;;;;;82.80;39.50;;;;;;;8.01;100.00;98504.48;272192;1277;22329;-86
2024/03/12 17:00:06;;;;;;;74.70;37.90;;;;;;;8.00;100.00;98503.45;271823;1277;23085;-87
2024/03/12 17:06:10;;;;;;;82.30;38.50;;;;;;;8.01;100.00;98506.49;271135;1277;22909;-86
2024/03/12 17:12:19;;;;;;;77.90;38.00;;;;;;;7.99;100.00;98509.44;271724;1277;22271;-86
2024/03/12 17:19:12;;;;;;;;;;;;;;;7.98;100.00;98510.59;271522;1277;22492;-87
2024/03/12 17:25:33;;;;;;;79.30;38.90;;;;;;;7.95;100.00;98512.02;272354;1284;22214;-86
2024/03/12 17:31:37;;;;;;;69.60;37.90;;;;;;;7.93;100.00;98516.66;272582;1284;22255;-87
2024/03/12 17:37:46;;;;;;;74.20;39.20;;;;;;;7.90;100.00;98519.20;271613;1278;22210;-87
2024/03/12 17:43:49;;;;;;;79.30;39.30;;;;;;;7.88;100.00;98528.20;271709;1276;22372;-86
2024/03/12 17:50:53;;;;;;;80.70;40.70;;;;;;;7.89;100.00;98531.72;271510;1277;22230;-86
2024/03/12 17:57:20;;;;;;;72.60;38.70;;;;;;;7.88;100.00;98532.56;270416;1286;22285;-86
2024/03/12 18:03:22;;;;;;;78.30;39.90;;;;;;;7.87;100.00;98535.20;270569;1277;23374;-86
2024/03/12 18:09:29;;;;;;;76.40;39.50;;;;;;;7.86;100.00;98536.83;271444;1276;22417;-87
2024/03/12 18:15:31;;;;;;;76.10;41.10;;;;;;;7.86;100.00;98543.13;271685;1271;24047;-87
2024/03/12 18:21:36;;;;;;;83.90;40.40;;;;;;;7.85;100.00;98548.41;271803;1277;22783;-87
2024/03/12 18:27:55;;;;;;;83.20;43.50;;;;;;;7.82;100.00;98552.31;272597;1280;22203;-86
2024/03/12 18:34:00;;;;;;;91.10;44.60;;;;;;;7.80;100.00;98554.94;271842;1277;22190;-86
2024/03/12 18:40:17;;;;;;;79.60;38.30;;;;;;;7.78;100.00;98555.92;271703;1277;22215;-87
2024/03/12 18:46:54;;;;;;;82.50;40.50;;;;;;;7.75;100.00;98560.00;271280;1277;22430;-87
2024/03/12 18:52:57;;;;;;;68.70;37.20;;;;;;;7.74;100.00;98558.90;271469;1276;22213;-88
2024/03/12 18:58:59;;;;;;;72.60;36.00;;;;;;;7.73;100.00;98563.40;271255;1277;22497;-87
2024/03/12 19:05:13;;;;;;;68.70;36.50;;;;;;;7.71;100.00;98568.67;271182;1277;22472;-87
2024/03/12 19:11:19;;;;;;;49.60;26.20;;;;;;;7.70;100.00;98575.02;271233;1276;22282;-87
2024/03/12 19:17:45;;;;;;;44.80;22.70;;;;;;;7.66;100.00;98576.69;271623;1277;22965;-87
2024/03/12 19:23:49;;;;;;;37.90;19.60;;;;;;;7.63;100.00;98571.64;270817;1277;22513;-87
2024/03/12 19:29:51;;;;;;;28.30;16.50;;;;;;;7.63;100.00;98577.48;271488;1277;22437;-87
2024/03/12 19:35:54;;;;;;;23.60;14.60;;;;;;;7.62;100.00;98580.58;271006;1277;23370;-87
2024/03/12 19:41:56;;;;;;;25.70;15.00;;;;;;;7.58;100.00;98573.60;271517;1277;22218;-88
2024/03/12 19:48:00;;;;;;;23.30;14.50;;;;;;;7.56;100.00;98576.37;271580;1276;22227;-88
2024/03/12 19:54:15;;;;;;;34.20;20.70;;;;;;;7.56;100.00;98578.94;271904;1277;22219;-87
2024/03/12 20:00:21;;;;;;;50.00;26.50;;;;;;;7.57;100.00;98579.58;271252;1277;22398;-87
2024/03/12 20:06:23;;;;;;;58.80;32.40;;;;;;;7.56;100.00;98581.10;271316;1277;22591;-87
2024/03/12 20:12:27;;;;;;;63.00;32.70;;;;;;;7.55;100.00;98584.91;271255;1276;22378;-87
2024/03/12 20:18:38;;;;;;;67.30;34.30;;;;;;;7.55;100.00;98588.57;271304;1276;22204;-87
2024/03/12 20:24:40;;;;;;;62.80;31.00;;;;;;;7.53;100.00;98592.58;271581;1277;24040;-87
2024/03/12 20:30:42;;;;;;;53.20;29.30;;;;;;;7.51;100.00;98600.16;271327;1276;22281;-87
2024/03/12 20:37:08;;;;;;;60.40;30.60;;;;;;;7.49;100.00;98601.54;271957;1277;22641;-87
2024/03/12 20:44:40;;;;;;;53.60;29.30;;;;;;;7.46;100.00;98604.62;269728;1289;22265;-87
2024/03/12 20:50:44;;;;;;;57.20;30.90;;;;;;;7.45;100.00;98611.67;269632;1289;22641;-87
2024/03/12 20:57:11;;;;;;;49.50;26.70;;;;;;;7.43;100.00;98614.98;269079;1288;22230;-87
2024/03/12 21:03:43;;;;;;;49.60;28.20;;;;;;;7.42;100.00;98615.42;271076;1280;22226;-87
2024/03/12 21:09:45;;;;;;;51.50;28.40;;;;;;;7.39;100.00;98614.27;270412;1280;22447;-87
2024/03/12 21:15:47;;;;;;;46.40;27.70;;;;;;;7.36;100.00;98612.52;271292;1278;22985;-86
2024/03/12 21:21:49;;;;;;;53.90;28.60;;;;;;;7.33;100.00;98610.53;271219;1278;22450;-87
2024/03/12 21:27:55;;;;;;;50.90;27.20;;;;;;;7.33;100.00;98607.25;271242;1277;22388;-87
2024/03/12 21:34:00;;;;;;;45.60;27.20;;;;;;;7.31;100.00;98609.71;271249;1279;22241;-86
2024/03/12 21:40:13;;;;;;;44.60;25.40;;;;;;;7.31;100.00;98614.74;271807;1267;23252;-86
2024/03/12 21:46:20;;;;;;;50.50;26.50;;;;;;;7.29;100.00;98619.45;272241;1284;24110;-86
2024/03/12 21:53:57;;;;;;;41.50;23.70;;;;;;;7.28;100.00;98622.95;272037;1277;22032;-86
2024/03/12 22:00:30;;;;;;;42.30;23.30;;;;;;;7.26;100.00;98623.38;272414;1277;22269;-86
2024/03/12 22:07:00;;;;;;;38.20;22.70;;;;;;;7.24;100.00;98634.09;271651;1277;22327;-85
2024/03/12 22:14:07;;;;;;;38.10;22.60;;;;;;;7.22;100.00;98638.09;272236;1278;22210;-86
2024/03/12 22:20:55;;;;;;;37.50;20.60;;;;;;;7.19;100.00;98641.91;270947;1292;23227;-87
2024/03/12 22:26:56;;;;;;;37.60;21.40;;;;;;;7.18;100.00;98643.54;270036;1277;22448;-86
2024/03/12 22:32:58;;;;;;;32.70;19.60;;;;;;;7.17;100.00;98649.58;271612;1270;22475;-87
2024/03/12 22:39:02;;;;;;;34.70;19.60;;;;;;;7.14;100.00;98650.30;271443;1274;23394;-86
2024/03/12 22:45:06;;;;;;;32.20;18.70;;;;;;;7.11;100.00;98650.64;271929;1276;22432;-87
2024/03/12 22:51:34;;;;;;;31.50;19.10;;;;;;;7.08;100.00;98654.71;272005;1277;22279;-86
2024/03/12 22:59:26;;;;;;;31.40;18.60;;;;;;;7.06;100.00;98659.56;272268;1276;22290;-86
2024/03/12 23:06:25;;;;;;;31.70;19.60;;;;;;;7.06;100.00;98657.45;271962;1276;22872;-86
2024/03/12 23:19:59;;;;;;;32.50;20.10;;;;;;;7.02;100.00;98665.38;271801;1277;22299;-86
2024/03/12 23:26:31;;;;;;;32.20;19.60;;;;;;;6.99;100.00;98670.30;272278;1280;22288;-86
2024/03/12 23:33:18;;;;;;;37.40;20.60;;;;;;;6.98;100.00;98671.30;272514;1277;22975;-86
2024/03/12 23:39:30;;;;;;;32.20;20.10;;;;;;;6.97;100.00;98673.76;272362;1277;22271;-87
2024/03/12 23:45:33;;;;;;;30.70;19.30;;;;;;;6.95;100.00;98673.71;272297;1277;22353;-86
2024/03/12 23:51:34;;;;;;;34.90;18.70;;;;;;;6.95;100.00;98675.03;272083;1277;22196;-86
2024/03/12 23:57:42;;;;;;;31.20;18.40;;;;;;;6.95;100.00;98679.71;272267;1267;22926;-87
